sensor_id;sensor_type;location;lat;lon;timestamp;P1;durP1;ratioP1;P2;durP2;ratioP2
12798;SDS011;19250;42.646;26.980;2022-12-29T00:02:06;37.03;;;24.48;;
12798;SDS011;19250;42.646;26.980;2022-12-29T00:04:33;48.13;;;31.33;;
12798;SDS011;19250;42.646;26.980;2022-12-29T00:07:00;40.87;;;25.53;;
12798;SDS011;19250;42.646;26.980;2022-12-29T00:09:29;40.75;;;27.67;;
12798;SDS011;19250;42.646;26.980;2022-12-29T00:11:57;44.08;;;28.90;;
12798;SDS011;19250;42.646;26.980;2022-12-29T00:14:25;44.42;;;29.02;;
12798;SDS011;19250;42.646;26.980;2022-12-29T00:17:11;45.58;;;32.83;;
12798;SDS011;19250;42.646;26.980;2022-12-29T00:19:38;29.30;;;21.13;;
12798;SDS011;19250;42.646;26.980;2022-12-29T00:22:24;37.38;;;26.70;;
12798;SDS011;19250;42.646;26.980;2022-12-29T00:25:09;40.25;;;26.42;;
12798;SDS011;19250;42.646;26.980;2022-12-29T00:27:54;40.05;;;26.70;;
12798;SDS011;19250;42.646;26.980;2022-12-29T00:30:39;30.83;;;19.90;;
12798;SDS011;19250;42.646;26.980;2022-12-29T00:33:28;31.05;;;19.90;;
12798;SDS011;19250;42.646;26.980;2022-12-29T00:36:15;25.52;;;17.13;;
12798;SDS011;19250;42.646;26.980;2022-12-29T00:38:46;26.40;;;18.35;;
12798;SDS011;19250;42.646;26.980;2022-12-29T00:41:33;39.60;;;27.50;;
12798;SDS011;19250;42.646;26.980;2022-12-29T00:44:18;58.25;;;39.03;;
12798;SDS011;19250;42.646;26.980;2022-12-29T00:46:45;39.75;;;28.00;;
12798;SDS011;19250;42.646;26.980;2022-12-29T00:49:14;23.33;;;17.50;;
12798;SDS011;19250;42.646;26.980;2022-12-29T00:51:56;27.00;;;19.98;;
12798;SDS011;19250;42.646;26.980;2022-12-29T00:54:24;24.33;;;18.70;;
12798;SDS011;19250;42.646;26.980;2022-12-29T00:56:52;27.52;;;21.67;;
12798;SDS011;19250;42.646;26.980;2022-12-29T00:59:20;30.70;;;24.40;;
12798;SDS011;19250;42.646;26.980;2022-12-29T01:01:49;32.83;;;23.38;;
12798;SDS011;19250;42.646;26.980;2022-12-29T01:04:19;100.80;;;61.63;;
12798;SDS011;19250;42.646;26.980;2022-12-29T01:06:46;40.78;;;24.92;;
12798;SDS011;19250;42.646;26.980;2022-12-29T01:09:14;64.57;;;41.53;;
12798;SDS011;19250;42.646;26.980;2022-12-29T01:11:56;38.00;;;26.70;;
12798;SDS011;19250;42.646;26.980;2022-12-29T01:14:24;85.18;;;49.70;;
12798;SDS011;19250;42.646;26.980;2022-12-29T01:16:52;57.05;;;36.00;;
12798;SDS011;19250;42.646;26.980;2022-12-29T01:19:21;58.83;;;38.00;;
12798;SDS011;19250;42.646;26.980;2022-12-29T01:21:49;41.77;;;27.50;;
12798;SDS011;19250;42.646;26.980;2022-12-29T01:24:17;24.70;;;18.75;;
12798;SDS011;19250;42.646;26.980;2022-12-29T01:26:45;23.20;;;17.65;;
12798;SDS011;19250;42.646;26.980;2022-12-29T01:29:12;33.27;;;23.07;;
12798;SDS011;19250;42.646;26.980;2022-12-29T01:31:40;63.40;;;49.33;;
12798;SDS011;19250;42.646;26.980;2022-12-29T01:34:08;26.80;;;21.02;;
12798;SDS011;19250;42.646;26.980;2022-12-29T01:36:37;55.83;;;42.43;;
12798;SDS011;19250;42.646;26.980;2022-12-29T01:39:05;48.73;;;41.67;;
12798;SDS011;19250;42.646;26.980;2022-12-29T01:41:32;45.35;;;36.97;;
12798;SDS011;19250;42.646;26.980;2022-12-29T01:43:59;31.33;;;25.95;;
12798;SDS011;19250;42.646;26.980;2022-12-29T01:46:28;49.13;;;39.03;;
12798;SDS011;19250;42.646;26.980;2022-12-29T01:49:00;34.42;;;29.88;;
12798;SDS011;19250;42.646;26.980;2022-12-29T01:51:37;35.90;;;25.75;;
12798;SDS011;19250;42.646;26.980;2022-12-29T01:54:09;31.88;;;25.75;;
12798;SDS011;19250;42.646;26.980;2022-12-29T01:56:43;30.27;;;25.20;;
12798;SDS011;19250;42.646;26.980;2022-12-29T01:59:12;29.83;;;23.00;;
12798;SDS011;19250;42.646;26.980;2022-12-29T02:01:44;21.63;;;18.40;;
12798;SDS011;19250;42.646;26.980;2022-12-29T02:04:11;23.33;;;16.55;;
12798;SDS011;19250;42.646;26.980;2022-12-29T02:06:43;22.48;;;16.00;;
12798;SDS011;19250;42.646;26.980;2022-12-29T02:09:15;22.58;;;16.02;;
12798;SDS011;19250;42.646;26.980;2022-12-29T02:11:42;37.10;;;26.47;;
12798;SDS011;19250;42.646;26.980;2022-12-29T02:14:10;38.50;;;26.35;;
12798;SDS011;19250;42.646;26.980;2022-12-29T02:16:46;31.23;;;20.50;;
12798;SDS011;19250;42.646;26.980;2022-12-29T02:22:35;29.80;;;22.77;;
12798;SDS011;19250;42.646;26.980;2022-12-29T02:28:17;20.70;;;14.27;;
12798;SDS011;19250;42.646;26.980;2022-12-29T02:31:08;15.98;;;9.10;;
12798;SDS011;19250;42.646;26.980;2022-12-29T02:33:44;22.80;;;16.00;;
12798;SDS011;19250;42.646;26.980;2022-12-29T02:36:21;28.13;;;17.77;;
12798;SDS011;19250;42.646;26.980;2022-12-29T02:38:59;26.60;;;19.83;;
12798;SDS011;19250;42.646;26.980;2022-12-29T02:41:33;31.05;;;19.65;;
12798;SDS011;19250;42.646;26.980;2022-12-29T02:44:05;36.70;;;29.35;;
12798;SDS011;19250;42.646;26.980;2022-12-29T02:46:43;32.37;;;24.10;;
12798;SDS011;19250;42.646;26.980;2022-12-29T02:49:15;36.28;;;26.98;;
12798;SDS011;19250;42.646;26.980;2022-12-29T02:51:50;36.38;;;28.80;;
12798;SDS011;19250;42.646;26.980;2022-12-29T02:54:22;37.67;;;29.03;;
12798;SDS011;19250;42.646;26.980;2022-12-29T02:57:10;34.15;;;26.20;;
12798;SDS011;19250;42.646;26.980;2022-12-29T02:59:40;33.15;;;26.90;;
12798;SDS011;19250;42.646;26.980;2022-12-29T03:02:17;66.13;;;40.47;;
12798;SDS011;19250;42.646;26.980;2022-12-29T03:05:09;45.00;;;29.70;;
12798;SDS011;19250;42.646;26.980;2022-12-29T03:07:48;51.25;;;33.42;;
12798;SDS011;19250;42.646;26.980;2022-12-29T03:10:26;43.20;;;28.93;;
12798;SDS011;19250;42.646;26.980;2022-12-29T03:13:02;32.72;;;23.70;;
12798;SDS011;19250;42.646;26.980;2022-12-29T03:15:54;40.30;;;27.20;;
12798;SDS011;19250;42.646;26.980;2022-12-29T03:18:33;47.83;;;31.03;;
12798;SDS011;19250;42.646;26.980;2022-12-29T03:21:07;53.33;;;33.15;;
12798;SDS011;19250;42.646;26.980;2022-12-29T03:23:39;38.58;;;26.10;;
12798;SDS011;19250;42.646;26.980;2022-12-29T03:26:10;35.55;;;24.55;;
12798;SDS011;19250;42.646;26.980;2022-12-29T03:28:40;36.03;;;28.33;;
12798;SDS011;19250;42.646;26.980;2022-12-29T03:31:12;41.63;;;31.92;;
12798;SDS011;19250;42.646;26.980;2022-12-29T03:33:42;32.67;;;24.85;;
12798;SDS011;19250;42.646;26.980;2022-12-29T03:36:13;52.50;;;46.00;;
12798;SDS011;19250;42.646;26.980;2022-12-29T03:38:46;41.95;;;33.85;;
12798;SDS011;19250;42.646;26.980;2022-12-29T03:41:17;39.45;;;29.65;;
12798;SDS011;19250;42.646;26.980;2022-12-29T03:43:48;42.65;;;34.60;;
12798;SDS011;19250;42.646;26.980;2022-12-29T03:46:15;38.88;;;31.85;;
12798;SDS011;19250;42.646;26.980;2022-12-29T03:48:44;44.33;;;33.97;;
12798;SDS011;19250;42.646;26.980;2022-12-29T03:51:11;43.85;;;34.17;;
12798;SDS011;19250;42.646;26.980;2022-12-29T03:53:38;43.72;;;33.83;;
12798;SDS011;19250;42.646;26.980;2022-12-29T03:56:05;51.60;;;39.30;;
12798;SDS011;19250;42.646;26.980;2022-12-29T03:58:33;108.50;;;71.03;;
12798;SDS011;19250;42.646;26.980;2022-12-29T04:01:00;76.95;;;51.17;;
12798;SDS011;19250;42.646;26.980;2022-12-29T04:03:27;77.97;;;46.15;;
12798;SDS011;19250;42.646;26.980;2022-12-29T04:05:56;48.13;;;35.57;;
12798;SDS011;19250;42.646;26.980;2022-12-29T04:08:23;48.53;;;39.35;;
12798;SDS011;19250;42.646;26.980;2022-12-29T04:10:50;48.58;;;38.92;;
12798;SDS011;19250;42.646;26.980;2022-12-29T04:13:18;53.75;;;41.40;;
12798;SDS011;19250;42.646;26.980;2022-12-29T04:15:45;56.15;;;43.28;;
12798;SDS011;19250;42.646;26.980;2022-12-29T04:18:13;58.33;;;41.67;;
12798;SDS011;19250;42.646;26.980;2022-12-29T04:20:41;57.63;;;40.55;;
12798;SDS011;19250;42.646;26.980;2022-12-29T04:23:29;56.30;;;44.45;;
12798;SDS011;19250;42.646;26.980;2022-12-29T04:25:58;57.80;;;48.20;;
12798;SDS011;19250;42.646;26.980;2022-12-29T04:28:25;67.32;;;54.90;;
12798;SDS011;19250;42.646;26.980;2022-12-29T04:30:53;62.22;;;49.13;;
12798;SDS011;19250;42.646;26.980;2022-12-29T04:33:21;47.65;;;38.03;;
12798;SDS011;19250;42.646;26.980;2022-12-29T04:35:49;49.40;;;38.83;;
12798;SDS011;19250;42.646;26.980;2022-12-29T04:38:18;50.72;;;41.33;;
12798;SDS011;19250;42.646;26.980;2022-12-29T04:40:47;52.28;;;40.95;;
12798;SDS011;19250;42.646;26.980;2022-12-29T04:43:14;48.53;;;38.13;;
12798;SDS011;19250;42.646;26.980;2022-12-29T04:45:44;53.33;;;39.80;;
12798;SDS011;19250;42.646;26.980;2022-12-29T04:48:11;53.97;;;42.28;;
12798;SDS011;19250;42.646;26.980;2022-12-29T04:50:39;50.92;;;41.40;;
12798;SDS011;19250;42.646;26.980;2022-12-29T04:53:08;46.28;;;34.47;;
12798;SDS011;19250;42.646;26.980;2022-12-29T04:55:36;49.00;;;38.90;;
12798;SDS011;19250;42.646;26.980;2022-12-29T04:58:05;52.90;;;40.78;;
12798;SDS011;19250;42.646;26.980;2022-12-29T05:00:33;54.03;;;43.38;;
12798;SDS011;19250;42.646;26.980;2022-12-29T05:03:00;55.90;;;42.63;;
12798;SDS011;19250;42.646;26.980;2022-12-29T05:05:27;58.78;;;45.35;;
12798;SDS011;19250;42.646;26.980;2022-12-29T05:07:54;62.70;;;45.90;;
12798;SDS011;19250;42.646;26.980;2022-12-29T05:10:22;61.00;;;46.20;;
12798;SDS011;19250;42.646;26.980;2022-12-29T05:12:49;60.60;;;46.67;;
12798;SDS011;19250;42.646;26.980;2022-12-29T05:15:18;58.25;;;44.00;;
12798;SDS011;19250;42.646;26.980;2022-12-29T05:20:40;93.05;;;74.68;;
12798;SDS011;19250;42.646;26.980;2022-12-29T05:23:07;100.60;;;77.70;;
12798;SDS011;19250;42.646;26.980;2022-12-29T05:25:35;99.10;;;74.38;;
12798;SDS011;19250;42.646;26.980;2022-12-29T05:28:02;80.68;;;63.67;;
12798;SDS011;19250;42.646;26.980;2022-12-29T05:30:32;82.05;;;62.53;;
12798;SDS011;19250;42.646;26.980;2022-12-29T05:32:59;84.50;;;63.03;;
12798;SDS011;19250;42.646;26.980;2022-12-29T05:35:26;286.52;;;227.70;;
12798;SDS011;19250;42.646;26.980;2022-12-29T05:37:54;287.20;;;222.23;;
12798;SDS011;19250;42.646;26.980;2022-12-29T05:40:21;188.15;;;143.77;;
12798;SDS011;19250;42.646;26.980;2022-12-29T05:42:48;192.97;;;143.90;;
12798;SDS011;19250;42.646;26.980;2022-12-29T05:45:16;165.45;;;128.88;;
12798;SDS011;19250;42.646;26.980;2022-12-29T05:47:45;130.70;;;106.05;;
12798;SDS011;19250;42.646;26.980;2022-12-29T05:50:12;114.43;;;90.03;;
12798;SDS011;19250;42.646;26.980;2022-12-29T05:52:42;107.47;;;80.50;;
12798;SDS011;19250;42.646;26.980;2022-12-29T05:55:11;110.78;;;84.05;;
12798;SDS011;19250;42.646;26.980;2022-12-29T05:57:38;120.95;;;92.88;;
12798;SDS011;19250;42.646;26.980;2022-12-29T06:00:06;135.73;;;102.72;;
12798;SDS011;19250;42.646;26.980;2022-12-29T06:02:35;156.27;;;114.18;;
12798;SDS011;19250;42.646;26.980;2022-12-29T06:05:04;144.80;;;104.78;;
12798;SDS011;19250;42.646;26.980;2022-12-29T06:07:32;165.25;;;121.28;;
12798;SDS011;19250;42.646;26.980;2022-12-29T06:09:59;171.45;;;122.25;;
12798;SDS011;19250;42.646;26.980;2022-12-29T06:12:26;151.45;;;107.97;;
12798;SDS011;19250;42.646;26.980;2022-12-29T06:14:53;143.75;;;105.38;;
12798;SDS011;19250;42.646;26.980;2022-12-29T06:17:21;83.10;;;59.20;;
12798;SDS011;19250;42.646;26.980;2022-12-29T06:19:48;95.57;;;71.25;;
12798;SDS011;19250;42.646;26.980;2022-12-29T06:22:17;74.80;;;64.28;;
12798;SDS011;19250;42.646;26.980;2022-12-29T06:24:44;92.45;;;69.18;;
12798;SDS011;19250;42.646;26.980;2022-12-29T06:27:12;94.15;;;72.00;;
12798;SDS011;19250;42.646;26.980;2022-12-29T06:29:39;622.90;;;369.02;;
12798;SDS011;19250;42.646;26.980;2022-12-29T06:32:08;702.55;;;427.58;;
12798;SDS011;19250;42.646;26.980;2022-12-29T06:34:37;194.30;;;140.32;;
12798;SDS011;19250;42.646;26.980;2022-12-29T06:37:04;211.07;;;164.47;;
12798;SDS011;19250;42.646;26.980;2022-12-29T06:39:34;297.70;;;234.15;;
12798;SDS011;19250;42.646;26.980;2022-12-29T06:42:03;267.85;;;221.98;;
12798;SDS011;19250;42.646;26.980;2022-12-29T06:44:31;245.35;;;198.88;;
12798;SDS011;19250;42.646;26.980;2022-12-29T06:46:59;224.82;;;182.45;;
12798;SDS011;19250;42.646;26.980;2022-12-29T06:51:53;246.60;;;195.27;;
12798;SDS011;19250;42.646;26.980;2022-12-29T06:54:20;236.40;;;191.88;;
12798;SDS011;19250;42.646;26.980;2022-12-29T06:56:49;204.20;;;165.00;;
12798;SDS011;19250;42.646;26.980;2022-12-29T06:59:16;186.90;;;155.35;;
12798;SDS011;19250;42.646;26.980;2022-12-29T07:01:44;172.10;;;143.23;;
12798;SDS011;19250;42.646;26.980;2022-12-29T07:04:11;188.32;;;159.95;;
12798;SDS011;19250;42.646;26.980;2022-12-29T07:06:38;186.07;;;157.43;;
12798;SDS011;19250;42.646;26.980;2022-12-29T07:09:07;190.60;;;163.77;;
12798;SDS011;19250;42.646;26.980;2022-12-29T07:11:34;217.27;;;182.88;;
12798;SDS011;19250;42.646;26.980;2022-12-29T07:14:03;249.02;;;221.82;;
12798;SDS011;19250;42.646;26.980;2022-12-29T07:16:31;266.02;;;236.70;;
12798;SDS011;19250;42.646;26.980;2022-12-29T07:18:59;233.95;;;200.32;;
12798;SDS011;19250;42.646;26.980;2022-12-29T07:21:26;220.98;;;185.75;;
12798;SDS011;19250;42.646;26.980;2022-12-29T07:23:54;242.25;;;197.93;;
12798;SDS011;19250;42.646;26.980;2022-12-29T07:26:21;415.80;;;348.75;;
12798;SDS011;19250;42.646;26.980;2022-12-29T07:28:49;260.00;;;215.13;;
12798;SDS011;19250;42.646;26.980;2022-12-29T07:31:21;238.88;;;206.85;;
12798;SDS011;19250;42.646;26.980;2022-12-29T07:33:49;261.25;;;222.57;;
12798;SDS011;19250;42.646;26.980;2022-12-29T07:36:17;281.58;;;244.95;;
12798;SDS011;19250;42.646;26.980;2022-12-29T07:38:45;274.65;;;243.82;;
12798;SDS011;19250;42.646;26.980;2022-12-29T07:41:12;264.25;;;235.32;;
12798;SDS011;19250;42.646;26.980;2022-12-29T07:43:39;245.40;;;218.60;;
12798;SDS011;19250;42.646;26.980;2022-12-29T07:46:06;201.00;;;173.85;;
12798;SDS011;19250;42.646;26.980;2022-12-29T07:48:36;165.35;;;147.20;;
12798;SDS011;19250;42.646;26.980;2022-12-29T07:51:04;48.05;;;40.17;;
12798;SDS011;19250;42.646;26.980;2022-12-29T07:53:31;51.30;;;41.85;;
12798;SDS011;19250;42.646;26.980;2022-12-29T07:55:59;23.23;;;19.30;;
12798;SDS011;19250;42.646;26.980;2022-12-29T07:58:26;20.02;;;15.23;;
12798;SDS011;19250;42.646;26.980;2022-12-29T08:00:53;24.92;;;20.52;;
12798;SDS011;19250;42.646;26.980;2022-12-29T08:03:21;33.27;;;28.83;;
12798;SDS011;19250;42.646;26.980;2022-12-29T08:05:50;50.03;;;38.92;;
12798;SDS011;19250;42.646;26.980;2022-12-29T08:08:17;38.17;;;31.15;;
12798;SDS011;19250;42.646;26.980;2022-12-29T08:10:44;27.80;;;22.00;;
12798;SDS011;19250;42.646;26.980;2022-12-29T08:13:12;33.83;;;28.77;;
12798;SDS011;19250;42.646;26.980;2022-12-29T08:15:39;22.50;;;17.60;;
12798;SDS011;19250;42.646;26.980;2022-12-29T08:18:06;16.47;;;13.30;;
12798;SDS011;19250;42.646;26.980;2022-12-29T08:20:34;16.73;;;14.02;;
12798;SDS011;19250;42.646;26.980;2022-12-29T08:23:03;17.25;;;13.50;;
12798;SDS011;19250;42.646;26.980;2022-12-29T08:25:31;17.40;;;13.85;;
12798;SDS011;19250;42.646;26.980;2022-12-29T08:27:58;19.10;;;14.43;;
12798;SDS011;19250;42.646;26.980;2022-12-29T08:30:25;23.80;;;18.42;;
12798;SDS011;19250;42.646;26.980;2022-12-29T08:32:52;18.35;;;12.68;;
12798;SDS011;19250;42.646;26.980;2022-12-29T08:35:20;20.42;;;16.15;;
12798;SDS011;19250;42.646;26.980;2022-12-29T08:37:47;38.65;;;26.67;;
12798;SDS011;19250;42.646;26.980;2022-12-29T08:40:16;25.70;;;17.97;;
12798;SDS011;19250;42.646;26.980;2022-12-29T08:42:43;28.55;;;18.17;;
12798;SDS011;19250;42.646;26.980;2022-12-29T08:45:11;23.55;;;17.85;;
12798;SDS011;19250;42.646;26.980;2022-12-29T08:47:38;22.27;;;14.73;;
12798;SDS011;19250;42.646;26.980;2022-12-29T08:50:06;19.40;;;13.43;;
12798;SDS011;19250;42.646;26.980;2022-12-29T08:52:33;14.17;;;11.23;;
12798;SDS011;19250;42.646;26.980;2022-12-29T08:55:01;11.90;;;9.07;;
12798;SDS011;19250;42.646;26.980;2022-12-29T08:57:29;17.88;;;13.18;;
12798;SDS011;19250;42.646;26.980;2022-12-29T08:59:57;25.80;;;18.50;;
12798;SDS011;19250;42.646;26.980;2022-12-29T09:02:26;15.70;;;11.85;;
12798;SDS011;19250;42.646;26.980;2022-12-29T09:04:54;20.92;;;15.02;;
12798;SDS011;19250;42.646;26.980;2022-12-29T09:07:22;21.73;;;16.30;;
12798;SDS011;19250;42.646;26.980;2022-12-29T09:09:50;25.45;;;17.98;;
12798;SDS011;19250;42.646;26.980;2022-12-29T09:12:18;32.55;;;26.05;;
12798;SDS011;19250;42.646;26.980;2022-12-29T09:14:47;30.20;;;23.07;;
12798;SDS011;19250;42.646;26.980;2022-12-29T09:17:14;32.17;;;24.10;;
12798;SDS011;19250;42.646;26.980;2022-12-29T09:19:58;15.98;;;11.30;;
12798;SDS011;19250;42.646;26.980;2022-12-29T09:22:26;18.33;;;13.30;;
12798;SDS011;19250;42.646;26.980;2022-12-29T09:24:53;14.50;;;11.70;;
12798;SDS011;19250;42.646;26.980;2022-12-29T09:27:20;23.13;;;15.52;;
12798;SDS011;19250;42.646;26.980;2022-12-29T09:29:49;15.43;;;12.80;;
12798;SDS011;19250;42.646;26.980;2022-12-29T09:32:16;28.10;;;20.25;;
12798;SDS011;19250;42.646;26.980;2022-12-29T09:34:43;20.73;;;15.80;;
12798;SDS011;19250;42.646;26.980;2022-12-29T09:37:11;27.30;;;20.50;;
12798;SDS011;19250;42.646;26.980;2022-12-29T09:39:38;28.33;;;21.50;;
12798;SDS011;19250;42.646;26.980;2022-12-29T09:42:06;19.70;;;14.77;;
12798;SDS011;19250;42.646;26.980;2022-12-29T09:44:44;31.45;;;24.27;;
12798;SDS011;19250;42.646;26.980;2022-12-29T09:47:22;24.83;;;18.42;;
12798;SDS011;19250;42.646;26.980;2022-12-29T09:49:52;20.37;;;16.00;;
12798;SDS011;19250;42.646;26.980;2022-12-29T09:52:24;18.60;;;13.20;;
12798;SDS011;19250;42.646;26.980;2022-12-29T09:54:56;20.77;;;15.52;;
12798;SDS011;19250;42.646;26.980;2022-12-29T09:57:26;18.35;;;13.30;;
12798;SDS011;19250;42.646;26.980;2022-12-29T10:00:12;27.98;;;17.20;;
12798;SDS011;19250;42.646;26.980;2022-12-29T10:02:43;24.30;;;17.23;;
12798;SDS011;19250;42.646;26.980;2022-12-29T10:05:15;15.98;;;11.80;;
12798;SDS011;19250;42.646;26.980;2022-12-29T10:07:49;15.57;;;12.70;;
12798;SDS011;19250;42.646;26.980;2022-12-29T10:10:27;18.77;;;13.32;;
12798;SDS011;19250;42.646;26.980;2022-12-29T10:13:01;16.83;;;14.27;;
12798;SDS011;19250;42.646;26.980;2022-12-29T10:15:43;19.17;;;13.95;;
12798;SDS011;19250;42.646;26.980;2022-12-29T10:18:29;18.30;;;14.52;;
12798;SDS011;19250;42.646;26.980;2022-12-29T10:21:07;14.90;;;11.77;;
12798;SDS011;19250;42.646;26.980;2022-12-29T10:23:40;12.65;;;10.38;;
12798;SDS011;19250;42.646;26.980;2022-12-29T10:26:13;13.17;;;10.47;;
12798;SDS011;19250;42.646;26.980;2022-12-29T10:28:44;14.70;;;11.40;;
12798;SDS011;19250;42.646;26.980;2022-12-29T10:31:18;14.68;;;12.32;;
12798;SDS011;19250;42.646;26.980;2022-12-29T10:33:49;18.75;;;13.88;;
12798;SDS011;19250;42.646;26.980;2022-12-29T10:36:20;14.23;;;12.55;;
12798;SDS011;19250;42.646;26.980;2022-12-29T10:38:54;16.77;;;13.30;;
12798;SDS011;19250;42.646;26.980;2022-12-29T10:41:32;18.27;;;13.90;;
12798;SDS011;19250;42.646;26.980;2022-12-29T10:44:07;15.77;;;11.80;;
12798;SDS011;19250;42.646;26.980;2022-12-29T10:46:40;15.37;;;13.17;;
12798;SDS011;19250;42.646;26.980;2022-12-29T10:49:12;13.85;;;10.23;;
12798;SDS011;19250;42.646;26.980;2022-12-29T10:51:45;16.50;;;13.80;;
12798;SDS011;19250;42.646;26.980;2022-12-29T10:54:16;21.95;;;17.50;;
12798;SDS011;19250;42.646;26.980;2022-12-29T10:56:50;20.23;;;17.25;;
12798;SDS011;19250;42.646;26.980;2022-12-29T10:59:21;24.60;;;19.67;;
12798;SDS011;19250;42.646;26.980;2022-12-29T11:01:54;19.92;;;15.68;;
12798;SDS011;19250;42.646;26.980;2022-12-29T11:07:12;28.57;;;22.53;;
12798;SDS011;19250;42.646;26.980;2022-12-29T11:09:43;28.77;;;23.25;;
12798;SDS011;19250;42.646;26.980;2022-12-29T11:12:18;33.95;;;23.92;;
12798;SDS011;19250;42.646;26.980;2022-12-29T11:14:59;24.08;;;17.73;;
12798;SDS011;19250;42.646;26.980;2022-12-29T11:17:30;27.30;;;21.48;;
12798;SDS011;19250;42.646;26.980;2022-12-29T11:20:19;27.33;;;21.45;;
12798;SDS011;19250;42.646;26.980;2022-12-29T11:22:54;23.27;;;17.70;;
12798;SDS011;19250;42.646;26.980;2022-12-29T11:25:21;20.17;;;17.90;;
12798;SDS011;19250;42.646;26.980;2022-12-29T11:27:54;23.42;;;20.63;;
12798;SDS011;19250;42.646;26.980;2022-12-29T11:30:23;18.48;;;16.58;;
12798;SDS011;19250;42.646;26.980;2022-12-29T11:32:54;18.25;;;16.35;;
12798;SDS011;19250;42.646;26.980;2022-12-29T11:35:31;15.80;;;14.13;;
12798;SDS011;19250;42.646;26.980;2022-12-29T11:38:01;16.85;;;15.15;;
12798;SDS011;19250;42.646;26.980;2022-12-29T11:40:29;19.00;;;16.85;;
12798;SDS011;19250;42.646;26.980;2022-12-29T11:43:00;16.20;;;14.00;;
12798;SDS011;19250;42.646;26.980;2022-12-29T11:45:30;18.73;;;16.83;;
12798;SDS011;19250;42.646;26.980;2022-12-29T11:48:01;16.42;;;14.73;;
12798;SDS011;19250;42.646;26.980;2022-12-29T11:50:34;16.70;;;14.90;;
12798;SDS011;19250;42.646;26.980;2022-12-29T11:53:05;19.63;;;17.63;;
12798;SDS011;19250;42.646;26.980;2022-12-29T11:55:49;17.67;;;15.18;;
12798;SDS011;19250;42.646;26.980;2022-12-29T11:58:18;16.58;;;14.82;;
12798;SDS011;19250;42.646;26.980;2022-12-29T12:00:45;19.02;;;16.98;;
12798;SDS011;19250;42.646;26.980;2022-12-29T12:03:17;16.33;;;14.73;;
12798;SDS011;19250;42.646;26.980;2022-12-29T12:05:47;17.80;;;15.90;;
12798;SDS011;19250;42.646;26.980;2022-12-29T12:08:20;16.42;;;14.73;;
12798;SDS011;19250;42.646;26.980;2022-12-29T12:10:57;18.83;;;16.52;;
12798;SDS011;19250;42.646;26.980;2022-12-29T12:13:31;18.58;;;16.15;;
12798;SDS011;19250;42.646;26.980;2022-12-29T12:16:04;19.75;;;17.20;;
12798;SDS011;19250;42.646;26.980;2022-12-29T12:18:39;21.00;;;18.52;;
12798;SDS011;19250;42.646;26.980;2022-12-29T12:21:15;19.23;;;17.27;;
12798;SDS011;19250;42.646;26.980;2022-12-29T12:24:07;17.27;;;15.43;;
12798;SDS011;19250;42.646;26.980;2022-12-29T12:26:52;13.93;;;12.00;;
12798;SDS011;19250;42.646;26.980;2022-12-29T12:29:28;16.58;;;14.93;;
12798;SDS011;19250;42.646;26.980;2022-12-29T12:32:08;13.07;;;11.63;;
12798;SDS011;19250;42.646;26.980;2022-12-29T12:34:43;12.65;;;10.63;;
12798;SDS011;19250;42.646;26.980;2022-12-29T12:40:18;15.18;;;13.73;;
12798;SDS011;19250;42.646;26.980;2022-12-29T12:42:58;13.63;;;11.63;;
12798;SDS011;19250;42.646;26.980;2022-12-29T12:45:42;24.38;;;19.73;;
12798;SDS011;19250;42.646;26.980;2022-12-29T12:48:38;30.02;;;24.27;;
12798;SDS011;19250;42.646;26.980;2022-12-29T12:51:19;26.95;;;21.52;;
12798;SDS011;19250;42.646;26.980;2022-12-29T12:54:01;94.45;;;58.17;;
12798;SDS011;19250;42.646;26.980;2022-12-29T12:56:47;78.43;;;59.45;;
12798;SDS011;19250;42.646;26.980;2022-12-29T12:59:35;23.88;;;21.42;;
12798;SDS011;19250;42.646;26.980;2022-12-29T13:02:15;22.02;;;19.73;;
12798;SDS011;19250;42.646;26.980;2022-12-29T13:04:56;18.35;;;16.48;;
12798;SDS011;19250;42.646;26.980;2022-12-29T13:07:50;18.55;;;16.45;;
12798;SDS011;19250;42.646;26.980;2022-12-29T13:10:30;27.63;;;24.90;;
12798;SDS011;19250;42.646;26.980;2022-12-29T13:13:10;16.77;;;14.90;;
12798;SDS011;19250;42.646;26.980;2022-12-29T13:16:01;18.00;;;16.15;;
12798;SDS011;19250;42.646;26.980;2022-12-29T13:18:37;31.48;;;26.30;;
12798;SDS011;19250;42.646;26.980;2022-12-29T13:21:17;19.60;;;17.67;;
12798;SDS011;19250;42.646;26.980;2022-12-29T13:23:54;18.65;;;15.73;;
12798;SDS011;19250;42.646;26.980;2022-12-29T13:26:28;18.15;;;16.23;;
12798;SDS011;19250;42.646;26.980;2022-12-29T13:29:03;24.35;;;21.65;;
12798;SDS011;19250;42.646;26.980;2022-12-29T13:31:41;26.70;;;21.48;;
12798;SDS011;19250;42.646;26.980;2022-12-29T13:34:17;30.02;;;24.95;;
12798;SDS011;19250;42.646;26.980;2022-12-29T13:36:54;18.83;;;16.35;;
12798;SDS011;19250;42.646;26.980;2022-12-29T13:39:27;19.48;;;16.33;;
12798;SDS011;19250;42.646;26.980;2022-12-29T13:42:01;38.33;;;31.83;;
12798;SDS011;19250;42.646;26.980;2022-12-29T13:44:31;26.92;;;21.25;;
12798;SDS011;19250;42.646;26.980;2022-12-29T13:47:02;35.70;;;26.77;;
12798;SDS011;19250;42.646;26.980;2022-12-29T13:49:41;40.85;;;30.48;;
12798;SDS011;19250;42.646;26.980;2022-12-29T13:52:11;35.90;;;27.90;;
12798;SDS011;19250;42.646;26.980;2022-12-29T13:54:45;37.97;;;28.77;;
12798;SDS011;19250;42.646;26.980;2022-12-29T13:57:28;36.70;;;28.15;;
12798;SDS011;19250;42.646;26.980;2022-12-29T14:00:07;35.58;;;29.02;;
12798;SDS011;19250;42.646;26.980;2022-12-29T14:02:42;56.85;;;42.58;;
12798;SDS011;19250;42.646;26.980;2022-12-29T14:05:28;42.20;;;34.90;;
12798;SDS011;19250;42.646;26.980;2022-12-29T14:07:57;62.90;;;49.50;;
12798;SDS011;19250;42.646;26.980;2022-12-29T14:10:28;62.40;;;52.28;;
12798;SDS011;19250;42.646;26.980;2022-12-29T14:13:02;40.80;;;35.88;;
12798;SDS011;19250;42.646;26.980;2022-12-29T14:15:31;51.83;;;42.70;;
12798;SDS011;19250;42.646;26.980;2022-12-29T14:18:02;53.15;;;43.80;;
12798;SDS011;19250;42.646;26.980;2022-12-29T14:20:38;21.30;;;19.02;;
12798;SDS011;19250;42.646;26.980;2022-12-29T14:23:17;23.15;;;20.02;;
12798;SDS011;19250;42.646;26.980;2022-12-29T14:26:09;32.72;;;27.85;;
12798;SDS011;19250;42.646;26.980;2022-12-29T14:28:45;49.97;;;41.15;;
12798;SDS011;19250;42.646;26.980;2022-12-29T14:34:27;116.35;;;83.30;;
12798;SDS011;19250;42.646;26.980;2022-12-29T14:36:57;121.53;;;95.40;;
12798;SDS011;19250;42.646;26.980;2022-12-29T14:39:32;113.50;;;92.00;;
12798;SDS011;19250;42.646;26.980;2022-12-29T14:42:04;116.95;;;99.68;;
12798;SDS011;19250;42.646;26.980;2022-12-29T14:44:45;92.53;;;79.82;;
12798;SDS011;19250;42.646;26.980;2022-12-29T14:47:15;65.72;;;58.65;;
12798;SDS011;19250;42.646;26.980;2022-12-29T14:49:47;57.53;;;51.22;;
12798;SDS011;19250;42.646;26.980;2022-12-29T14:52:15;57.13;;;48.03;;
12798;SDS011;19250;42.646;26.980;2022-12-29T14:54:47;48.90;;;41.73;;